GMMC

Anfa Airport

Casablanca, Morocco
METAR GMMC 190900Z 04006KT 8000 FEW010 SCT016 24/20 Q1018 NOSIG
Observed Flight Rules
Sep-19 @ 09:00 UTC (46 minutes ago) Marginal Visual Flight Rules
Wind Visibility Clouds
40° at 6 knots 7,998 meters
  • Few at 1,000' AGL
  • Scattered at 1,600' AGL
Temperatures Readings
Current 24°C / 75°F
Dewpoint 20°C / 68°F
Humidity 78%
Altimeter 30.06" Hg
Pressure 1018 hPa
Elevation 62
METAR GMMC 190900Z 04006KT 8000 FEW010 SCT016 24/20 Q1018 NOSIG
Observed Flight Rules
Sep-19 @ 09:00 UTC
(46 minutes ago)
MVFR
Wind Visibility
40° at 6 knots 7,998 meters
Clouds
  • Few at 1,000' AGL
  • Scattered at 1,600' AGL
Temperature Dewpoint
24°C / 75°F 20°C / 68°F
Humidity Altimeter Pressure
78% 30.06" Hg 1018 hPa